sensor_id;sensor_type;location;lat;lon;timestamp;temperature;humidity
64034;SHT31;50280;49.864;8.638;2023-01-01T00:02:04;13.79;70.18
64034;SHT31;50280;49.864;8.638;2023-01-01T00:04:37;13.73;70.47
64034;SHT31;50280;49.864;8.638;2023-01-01T00:07:09;13.71;70.54
64034;SHT31;50280;49.864;8.638;2023-01-01T00:09:43;13.65;70.64
64034;SHT31;50280;49.864;8.638;2023-01-01T00:12:16;13.59;70.89
64034;SHT31;50280;49.864;8.638;2023-01-01T00:14:48;13.59;70.96
64034;SHT31;50280;49.864;8.638;2023-01-01T00:17:23;13.54;71.03
64034;SHT31;50280;49.864;8.638;2023-01-01T00:19:55;13.51;71.03
64034;SHT31;50280;49.864;8.638;2023-01-01T00:22:28;13.50;71.05
64034;SHT31;50280;49.864;8.638;2023-01-01T00:25:02;13.51;71.13
64034;SHT31;50280;49.864;8.638;2023-01-01T00:27:36;13.45;71.13
64034;SHT31;50280;49.864;8.638;2023-01-01T00:30:09;13.43;71.30
64034;SHT31;50280;49.864;8.638;2023-01-01T00:32:43;13.40;71.43
64034;SHT31;50280;49.864;8.638;2023-01-01T00:35:15;13.40;71.46
64034;SHT31;50280;49.864;8.638;2023-01-01T00:37:48;13.36;71.66
64034;SHT31;50280;49.864;8.638;2023-01-01T00:40:22;13.34;71.71
64034;SHT31;50280;49.864;8.638;2023-01-01T00:42:55;13.30;71.91
64034;SHT31;50280;49.864;8.638;2023-01-01T00:45:27;13.24;72.08
64034;SHT31;50280;49.864;8.638;2023-01-01T00:47:59;13.17;72.27
64034;SHT31;50280;49.864;8.638;2023-01-01T00:50:32;13.11;72.48
64034;SHT31;50280;49.864;8.638;2023-01-01T00:53:04;13.06;72.70
64034;SHT31;50280;49.864;8.638;2023-01-01T00:55:40;13.02;72.82
64034;SHT31;50280;49.864;8.638;2023-01-01T00:58:13;12.99;72.92
64034;SHT31;50280;49.864;8.638;2023-01-01T01:00:48;12.97;73.01
64034;SHT31;50280;49.864;8.638;2023-01-01T01:03:22;12.96;73.05
64034;SHT31;50280;49.864;8.638;2023-01-01T01:05:56;12.92;73.14
64034;SHT31;50280;49.864;8.638;2023-01-01T01:08:32;12.90;73.35
64034;SHT31;50280;49.864;8.638;2023-01-01T01:11:10;12.82;73.59
64034;SHT31;50280;49.864;8.638;2023-01-01T01:13:46;12.81;73.72
64034;SHT31;50280;49.864;8.638;2023-01-01T01:16:23;12.71;73.95
64034;SHT31;50280;49.864;8.638;2023-01-01T01:19:00;12.69;74.07
64034;SHT31;50280;49.864;8.638;2023-01-01T01:21:36;12.68;74.22
64034;SHT31;50280;49.864;8.638;2023-01-01T01:24:09;12.66;74.31
64034;SHT31;50280;49.864;8.638;2023-01-01T01:26:43;12.59;74.38
64034;SHT31;50280;49.864;8.638;2023-01-01T01:29:15;12.59;74.43
64034;SHT31;50280;49.864;8.638;2023-01-01T01:31:48;12.58;74.47
64034;SHT31;50280;49.864;8.638;2023-01-01T01:34:20;12.55;74.55
64034;SHT31;50280;49.864;8.638;2023-01-01T01:36:53;12.52;74.63
64034;SHT31;50280;49.864;8.638;2023-01-01T01:39:26;12.49;74.64
64034;SHT31;50280;49.864;8.638;2023-01-01T01:42:00;12.52;74.58
64034;SHT31;50280;49.864;8.638;2023-01-01T01:44:57;12.58;74.34
64034;SHT31;50280;49.864;8.638;2023-01-01T01:47:34;12.65;74.10
64034;SHT31;50280;49.864;8.638;2023-01-01T01:50:13;12.69;73.91
64034;SHT31;50280;49.864;8.638;2023-01-01T01:53:02;12.75;73.68
64034;SHT31;50280;49.864;8.638;2023-01-01T01:55:46;12.79;73.51
64034;SHT31;50280;49.864;8.638;2023-01-01T01:58:27;12.85;73.18
64034;SHT31;50280;49.864;8.638;2023-01-01T02:01:02;12.97;72.61
64034;SHT31;50280;49.864;8.638;2023-01-01T02:03:39;13.16;71.97
64034;SHT31;50280;49.864;8.638;2023-01-01T02:06:20;13.38;71.13
64034;SHT31;50280;49.864;8.638;2023-01-01T02:08:54;13.66;70.17
64034;SHT31;50280;49.864;8.638;2023-01-01T02:11:30;13.98;69.11
64034;SHT31;50280;49.864;8.638;2023-01-01T02:14:04;14.18;68.35
64034;SHT31;50280;49.864;8.638;2023-01-01T02:16:42;14.44;67.69
64034;SHT31;50280;49.864;8.638;2023-01-01T02:19:30;14.57;67.23
64034;SHT31;50280;49.864;8.638;2023-01-01T02:22:24;14.64;66.98
64034;SHT31;50280;49.864;8.638;2023-01-01T02:25:15;14.68;66.73
64034;SHT31;50280;49.864;8.638;2023-01-01T02:28:05;14.72;66.55
64034;SHT31;50280;49.864;8.638;2023-01-01T02:30:52;14.76;66.42
64034;SHT31;50280;49.864;8.638;2023-01-01T02:33:28;14.79;66.33
64034;SHT31;50280;49.864;8.638;2023-01-01T02:36:03;14.83;66.21
64034;SHT31;50280;49.864;8.638;2023-01-01T02:38:43;14.89;65.98
64034;SHT31;50280;49.864;8.638;2023-01-01T02:41:24;14.95;65.81
64034;SHT31;50280;49.864;8.638;2023-01-01T02:44:02;14.96;65.56
64034;SHT31;50280;49.864;8.638;2023-01-01T02:46:36;15.00;65.45
64034;SHT31;50280;49.864;8.638;2023-01-01T02:49:09;14.98;65.40
64034;SHT31;50280;49.864;8.638;2023-01-01T02:51:54;15.00;65.37
64034;SHT31;50280;49.864;8.638;2023-01-01T02:54:43;15.00;65.42
64034;SHT31;50280;49.864;8.638;2023-01-01T02:57:33;14.96;65.48
64034;SHT31;50280;49.864;8.638;2023-01-01T03:00:14;14.95;65.49
64034;SHT31;50280;49.864;8.638;2023-01-01T03:03:09;14.95;65.49
64034;SHT31;50280;49.864;8.638;2023-01-01T03:06:01;14.95;65.49
64034;SHT31;50280;49.864;8.638;2023-01-01T03:08:48;14.90;65.60
64034;SHT31;50280;49.864;8.638;2023-01-01T03:11:42;14.86;65.59
64034;SHT31;50280;49.864;8.638;2023-01-01T03:14:33;14.82;65.74
64034;SHT31;50280;49.864;8.638;2023-01-01T03:17:19;14.79;65.84
64034;SHT31;50280;49.864;8.638;2023-01-01T03:20:07;14.82;65.71
64034;SHT31;50280;49.864;8.638;2023-01-01T03:22:50;14.78;65.75
64034;SHT31;50280;49.864;8.638;2023-01-01T03:25:30;14.79;65.65
64034;SHT31;50280;49.864;8.638;2023-01-01T03:28:11;14.79;65.60
64034;SHT31;50280;49.864;8.638;2023-01-01T03:30:51;14.76;65.59
64034;SHT31;50280;49.864;8.638;2023-01-01T03:33:31;14.79;65.62
64034;SHT31;50280;49.864;8.638;2023-01-01T03:36:15;14.76;65.75
64034;SHT31;50280;49.864;8.638;2023-01-01T03:38:56;14.76;65.87
64034;SHT31;50280;49.864;8.638;2023-01-01T03:41:39;14.72;65.95
64034;SHT31;50280;49.864;8.638;2023-01-01T03:44:24;14.71;65.98
64034;SHT31;50280;49.864;8.638;2023-01-01T03:47:05;14.69;65.98
64034;SHT31;50280;49.864;8.638;2023-01-01T03:49:38;14.69;65.86
64034;SHT31;50280;49.864;8.638;2023-01-01T03:52:22;14.73;65.68
64034;SHT31;50280;49.864;8.638;2023-01-01T03:55:10;14.72;65.44
64034;SHT31;50280;49.864;8.638;2023-01-01T03:57:55;14.75;65.31
64034;SHT31;50280;49.864;8.638;2023-01-01T04:00:36;14.76;65.02
64034;SHT31;50280;49.864;8.638;2023-01-01T09:07:29;13.85;65.01
64034;SHT31;50280;49.864;8.638;2023-01-01T09:10:01;13.90;64.64
64034;SHT31;50280;49.864;8.638;2023-01-01T09:12:35;13.95;64.55
64034;SHT31;50280;49.864;8.638;2023-01-01T09:15:13;14.02;64.45
64034;SHT31;50280;49.864;8.638;2023-01-01T09:17:47;14.05;64.14
64034;SHT31;50280;49.864;8.638;2023-01-01T09:20:19;14.10;64.10
64034;SHT31;50280;49.864;8.638;2023-01-01T09:22:53;14.16;64.05
64034;SHT31;50280;49.864;8.638;2023-01-01T09:25:26;14.23;63.66
64034;SHT31;50280;49.864;8.638;2023-01-01T09:27:59;14.24;63.85
64034;SHT31;50280;49.864;8.638;2023-01-01T09:30:33;14.31;63.46
64034;SHT31;50280;49.864;8.638;2023-01-01T09:33:06;14.37;63.24
64034;SHT31;50280;49.864;8.638;2023-01-01T09:35:39;14.40;63.24
64034;SHT31;50280;49.864;8.638;2023-01-01T09:38:13;14.48;63.06
64034;SHT31;50280;49.864;8.638;2023-01-01T09:40:52;14.51;62.88
64034;SHT31;50280;49.864;8.638;2023-01-01T09:43:43;14.55;62.85
64034;SHT31;50280;49.864;8.638;2023-01-01T09:46:33;14.62;62.54
64034;SHT31;50280;49.864;8.638;2023-01-01T09:49:10;14.64;62.37
64034;SHT31;50280;49.864;8.638;2023-01-01T09:51:53;14.68;62.34
64034;SHT31;50280;49.864;8.638;2023-01-01T09:54:33;14.71;62.22
64034;SHT31;50280;49.864;8.638;2023-01-01T09:57:14;14.73;61.95
64034;SHT31;50280;49.864;8.638;2023-01-01T09:59:46;14.79;62.25
64034;SHT31;50280;49.864;8.638;2023-01-01T10:02:31;14.82;62.23
64034;SHT31;50280;49.864;8.638;2023-01-01T10:05:28;14.88;61.90
64034;SHT31;50280;49.864;8.638;2023-01-01T10:08:20;14.95;61.76
64034;SHT31;50280;49.864;8.638;2023-01-01T10:11:14;14.92;61.57
64034;SHT31;50280;49.864;8.638;2023-01-01T10:13:57;14.92;61.65
64034;SHT31;50280;49.864;8.638;2023-01-01T10:16:38;14.95;61.78
64034;SHT31;50280;49.864;8.638;2023-01-01T10:19:26;14.98;61.65
64034;SHT31;50280;49.864;8.638;2023-01-01T10:22:08;15.02;61.68
64034;SHT31;50280;49.864;8.638;2023-01-01T10:24:53;15.02;61.73
64034;SHT31;50280;49.864;8.638;2023-01-01T10:27:37;15.09;61.44
64034;SHT31;50280;49.864;8.638;2023-01-01T10:30:17;15.16;61.47
64034;SHT31;50280;49.864;8.638;2023-01-01T10:32:54;15.17;61.12
64034;SHT31;50280;49.864;8.638;2023-01-01T10:35:32;15.27;60.62
64034;SHT31;50280;49.864;8.638;2023-01-01T10:38:17;15.35;60.83
64034;SHT31;50280;49.864;8.638;2023-01-01T10:40:58;15.44;60.35
64034;SHT31;50280;49.864;8.638;2023-01-01T10:43:39;15.52;60.19
64034;SHT31;50280;49.864;8.638;2023-01-01T10:46:14;15.61;59.94
64034;SHT31;50280;49.864;8.638;2023-01-01T10:49:04;15.62;59.76
64034;SHT31;50280;49.864;8.638;2023-01-01T10:51:42;15.62;59.86
64034;SHT31;50280;49.864;8.638;2023-01-01T10:54:32;15.61;59.91
64034;SHT31;50280;49.864;8.638;2023-01-01T10:57:15;15.62;59.95
64034;SHT31;50280;49.864;8.638;2023-01-01T11:00:09;15.62;60.06
64034;SHT31;50280;49.864;8.638;2023-01-01T11:03:10;15.61;59.87
64034;SHT31;50280;49.864;8.638;2023-01-01T11:06:17;15.61;59.93
64034;SHT31;50280;49.864;8.638;2023-01-01T11:08:55;15.61;60.13
64034;SHT31;50280;49.864;8.638;2023-01-01T11:11:35;15.69;60.03
64034;SHT31;50280;49.864;8.638;2023-01-01T11:14:19;15.75;59.89
64034;SHT31;50280;49.864;8.638;2023-01-01T11:16:58;15.83;59.63
64034;SHT31;50280;49.864;8.638;2023-01-01T11:19:32;15.93;59.49
64034;SHT31;50280;49.864;8.638;2023-01-01T11:22:36;15.99;58.93
64034;SHT31;50280;49.864;8.638;2023-01-01T11:25:20;15.96;59.06
64034;SHT31;50280;49.864;8.638;2023-01-01T11:28:18;15.93;59.51
64034;SHT31;50280;49.864;8.638;2023-01-01T11:31:01;15.86;59.51
64034;SHT31;50280;49.864;8.638;2023-01-01T11:33:47;15.81;59.86
64034;SHT31;50280;49.864;8.638;2023-01-01T11:36:25;15.71;60.12
64034;SHT31;50280;49.864;8.638;2023-01-01T11:39:06;15.66;60.55
64034;SHT31;50280;49.864;8.638;2023-01-01T11:41:55;15.62;60.64
64034;SHT31;50280;49.864;8.638;2023-01-01T11:44:33;15.57;60.72
64034;SHT31;50280;49.864;8.638;2023-01-01T11:47:21;15.54;60.79
64034;SHT31;50280;49.864;8.638;2023-01-01T11:50:02;15.50;61.27
64034;SHT31;50280;49.864;8.638;2023-01-01T11:52:51;15.47;61.27
64034;SHT31;50280;49.864;8.638;2023-01-01T11:55:36;15.45;61.16
64034;SHT31;50280;49.864;8.638;2023-01-01T11:58:20;15.47;61.31
64034;SHT31;50280;49.864;8.638;2023-01-01T12:01:02;15.47;61.42
64034;SHT31;50280;49.864;8.638;2023-01-01T12:03:47;15.44;61.09
64034;SHT31;50280;49.864;8.638;2023-01-01T12:06:32;15.50;61.07
64034;SHT31;50280;49.864;8.638;2023-01-01T12:09:14;15.54;61.17
64034;SHT31;50280;49.864;8.638;2023-01-01T12:11:56;15.52;61.68
64034;SHT31;50280;49.864;8.638;2023-01-01T12:14:41;15.50;61.70
64034;SHT31;50280;49.864;8.638;2023-01-01T12:17:27;15.47;61.86
64034;SHT31;50280;49.864;8.638;2023-01-01T12:20:12;15.43;62.25
64034;SHT31;50280;49.864;8.638;2023-01-01T12:22:55;15.44;62.31
64034;SHT31;50280;49.864;8.638;2023-01-01T12:25:36;15.38;62.14
64034;SHT31;50280;49.864;8.638;2023-01-01T12:28:27;15.37;62.21
64034;SHT31;50280;49.864;8.638;2023-01-01T12:31:16;15.37;62.04
64034;SHT31;50280;49.864;8.638;2023-01-01T12:34:09;15.34;61.96
64034;SHT31;50280;49.864;8.638;2023-01-01T12:36:54;15.34;62.02
64034;SHT31;50280;49.864;8.638;2023-01-01T12:43:13;15.31;62.24
64034;SHT31;50280;49.864;8.638;2023-01-01T12:46:11;15.33;62.34
64034;SHT31;50280;49.864;8.638;2023-01-01T12:49:33;15.33;62.42
64034;SHT31;50280;49.864;8.638;2023-01-01T12:52:36;15.31;62.30
64034;SHT31;50280;49.864;8.638;2023-01-01T12:58:41;15.37;62.17
64034;SHT31;50280;49.864;8.638;2023-01-01T13:01:23;15.35;62.11
64034;SHT31;50280;49.864;8.638;2023-01-01T13:04:02;15.38;62.31
64034;SHT31;50280;49.864;8.638;2023-01-01T13:06:43;15.37;62.11
64034;SHT31;50280;49.864;8.638;2023-01-01T13:09:22;15.37;62.04
64034;SHT31;50280;49.864;8.638;2023-01-01T13:12:03;15.37;62.05
64034;SHT31;50280;49.864;8.638;2023-01-01T13:14:42;15.37;62.19
64034;SHT31;50280;49.864;8.638;2023-01-01T13:17:18;15.35;62.14
64034;SHT31;50280;49.864;8.638;2023-01-01T13:19:56;15.35;62.25
64034;SHT31;50280;49.864;8.638;2023-01-01T13:22:45;15.33;62.28
64034;SHT31;50280;49.864;8.638;2023-01-01T13:25:20;15.31;62.69
64034;SHT31;50280;49.864;8.638;2023-01-01T13:28:11;15.26;62.90
64034;SHT31;50280;49.864;8.638;2023-01-01T13:30:48;15.23;62.90
64034;SHT31;50280;49.864;8.638;2023-01-01T13:33:23;15.22;63.14
64034;SHT31;50280;49.864;8.638;2023-01-01T13:36:29;15.19;63.13
64034;SHT31;50280;49.864;8.638;2023-01-01T13:39:02;15.14;63.16
64034;SHT31;50280;49.864;8.638;2023-01-01T13:41:39;15.17;63.13
64034;SHT31;50280;49.864;8.638;2023-01-01T13:44:21;15.11;62.99
64034;SHT31;50280;49.864;8.638;2023-01-01T13:47:10;15.10;63.08
64034;SHT31;50280;49.864;8.638;2023-01-01T13:50:04;15.09;63.08
64034;SHT31;50280;49.864;8.638;2023-01-01T13:53:15;15.06;63.20
64034;SHT31;50280;49.864;8.638;2023-01-01T13:56:25;15.06;63.36
64034;SHT31;50280;49.864;8.638;2023-01-01T13:59:34;15.02;63.17
64034;SHT31;50280;49.864;8.638;2023-01-01T14:02:26;14.99;63.20
64034;SHT31;50280;49.864;8.638;2023-01-01T14:05:08;14.95;63.52
64034;SHT31;50280;49.864;8.638;2023-01-01T14:07:50;14.93;63.43
64034;SHT31;50280;49.864;8.638;2023-01-01T14:10:26;14.90;63.63
64034;SHT31;50280;49.864;8.638;2023-01-01T14:13:16;14.86;63.83
64034;SHT31;50280;49.864;8.638;2023-01-01T14:15:53;14.86;64.05
64034;SHT31;50280;49.864;8.638;2023-01-01T14:18:33;14.86;64.06
64034;SHT31;50280;49.864;8.638;2023-01-01T14:21:14;14.86;64.01
64034;SHT31;50280;49.864;8.638;2023-01-01T14:23:52;14.86;64.36
64034;SHT31;50280;49.864;8.638;2023-01-01T14:26:29;14.86;64.39
64034;SHT31;50280;49.864;8.638;2023-01-01T14:29:06;14.82;64.14
64034;SHT31;50280;49.864;8.638;2023-01-01T14:31:43;14.80;64.27
64034;SHT31;50280;49.864;8.638;2023-01-01T14:34:23;14.80;64.42
64034;SHT31;50280;49.864;8.638;2023-01-01T14:37:00;14.78;64.34
64034;SHT31;50280;49.864;8.638;2023-01-01T14:39:36;14.76;64.37
64034;SHT31;50280;49.864;8.638;2023-01-01T14:42:12;14.73;64.36
64034;SHT31;50280;49.864;8.638;2023-01-01T14:44:48;14.73;64.44
64034;SHT31;50280;49.864;8.638;2023-01-01T16:43:17;14.23;63.99
64034;SHT31;50280;49.864;8.638;2023-01-01T16:45:50;14.26;63.88
64034;SHT31;50280;49.864;8.638;2023-01-01T16:48:22;14.21;63.66
64034;SHT31;50280;49.864;8.638;2023-01-01T16:50:55;14.23;63.54
64034;SHT31;50280;49.864;8.638;2023-01-01T16:53:27;14.26;63.62
64034;SHT31;50280;49.864;8.638;2023-01-01T16:56:00;14.26;63.69
64034;SHT31;50280;49.864;8.638;2023-01-01T16:58:33;14.26;63.42
64034;SHT31;50280;49.864;8.638;2023-01-01T17:01:06;14.26;63.73
64034;SHT31;50280;49.864;8.638;2023-01-01T17:03:39;14.27;63.78
64034;SHT31;50280;49.864;8.638;2023-01-01T17:06:11;14.26;63.69
64034;SHT31;50280;49.864;8.638;2023-01-01T17:08:44;14.24;63.96
64034;SHT31;50280;49.864;8.638;2023-01-01T17:11:17;14.24;64.07
64034;SHT31;50280;49.864;8.638;2023-01-01T17:13:51;14.23;63.74
64034;SHT31;50280;49.864;8.638;2023-01-01T17:16:24;14.23;63.95
64034;SHT31;50280;49.864;8.638;2023-01-01T17:18:58;14.21;63.97
64034;SHT31;50280;49.864;8.638;2023-01-01T17:21:30;14.21;64.09
64034;SHT31;50280;49.864;8.638;2023-01-01T17:24:03;14.21;63.71
64034;SHT31;50280;49.864;8.638;2023-01-01T17:26:37;14.23;63.85
64034;SHT31;50280;49.864;8.638;2023-01-01T17:29:11;14.21;63.55
64034;SHT31;50280;49.864;8.638;2023-01-01T17:31:43;14.21;63.37
64034;SHT31;50280;49.864;8.638;2023-01-01T17:34:17;14.21;63.56
64034;SHT31;50280;49.864;8.638;2023-01-01T17:36:49;14.21;63.94
64034;SHT31;50280;49.864;8.638;2023-01-01T17:39:22;14.18;64.09
64034;SHT31;50280;49.864;8.638;2023-01-01T17:41:54;14.18;64.13
64034;SHT31;50280;49.864;8.638;2023-01-01T17:44:28;14.18;64.24
64034;SHT31;50280;49.864;8.638;2023-01-01T17:47:01;14.17;64.56
64034;SHT31;50280;49.864;8.638;2023-01-01T17:49:33;14.16;64.46
64034;SHT31;50280;49.864;8.638;2023-01-01T17:52:06;14.16;64.47
64034;SHT31;50280;49.864;8.638;2023-01-01T17:54:38;14.14;64.80
64034;SHT31;50280;49.864;8.638;2023-01-01T17:57:11;14.14;64.69
64034;SHT31;50280;49.864;8.638;2023-01-01T17:59:45;14.12;64.82
64034;SHT31;50280;49.864;8.638;2023-01-01T18:02:18;14.13;64.79
64034;SHT31;50280;49.864;8.638;2023-01-01T18:04:50;14.12;65.02
64034;SHT31;50280;49.864;8.638;2023-01-01T18:07:23;14.12;65.35
64034;SHT31;50280;49.864;8.638;2023-01-01T18:09:56;14.07;65.03
64034;SHT31;50280;49.864;8.638;2023-01-01T18:12:28;14.09;65.66
64034;SHT31;50280;49.864;8.638;2023-01-01T18:15:02;14.03;65.49
64034;SHT31;50280;49.864;8.638;2023-01-01T18:17:35;14.06;65.27
64034;SHT31;50280;49.864;8.638;2023-01-01T18:20:08;14.03;65.15
64034;SHT31;50280;49.864;8.638;2023-01-01T18:22:42;14.00;65.07
64034;SHT31;50280;49.864;8.638;2023-01-01T18:25:15;14.02;65.24
64034;SHT31;50280;49.864;8.638;2023-01-01T18:27:47;14.03;64.70
64034;SHT31;50280;49.864;8.638;2023-01-01T18:30:21;14.02;64.42
64034;SHT31;50280;49.864;8.638;2023-01-01T18:32:54;14.05;64.25
64034;SHT31;50280;49.864;8.638;2023-01-01T18:35:26;14.06;64.08
64034;SHT31;50280;49.864;8.638;2023-01-01T18:37:59;14.05;64.05
64034;SHT31;50280;49.864;8.638;2023-01-01T18:40:33;14.07;64.02
64034;SHT31;50280;49.864;8.638;2023-01-01T18:43:15;14.06;64.46
64034;SHT31;50280;49.864;8.638;2023-01-01T18:45:56;14.06;64.56
64034;SHT31;50280;49.864;8.638;2023-01-01T18:48:28;14.05;64.66
64034;SHT31;50280;49.864;8.638;2023-01-01T18:51:01;14.00;64.45
64034;SHT31;50280;49.864;8.638;2023-01-01T18:53:40;13.98;64.50
64034;SHT31;50280;49.864;8.638;2023-01-01T18:56:13;13.98;64.99
64034;SHT31;50280;49.864;8.638;2023-01-01T18:58:46;13.95;64.92
64034;SHT31;50280;49.864;8.638;2023-01-01T19:01:21;13.92;64.73
64034;SHT31;50280;49.864;8.638;2023-01-01T19:03:59;13.93;64.48
64034;SHT31;50280;49.864;8.638;2023-01-01T19:06:32;13.90;64.98
64034;SHT31;50280;49.864;8.638;2023-01-01T19:09:16;13.87;65.02
64034;SHT31;50280;49.864;8.638;2023-01-01T19:11:52;13.87;65.12
64034;SHT31;50280;49.864;8.638;2023-01-01T19:14:28;13.82;65.22
64034;SHT31;50280;49.864;8.638;2023-01-01T19:17:11;13.78;65.61
64034;SHT31;50280;49.864;8.638;2023-01-01T19:19:49;13.73;66.15
64034;SHT31;50280;49.864;8.638;2023-01-01T19:22:26;13.69;66.10
64034;SHT31;50280;49.864;8.638;2023-01-01T19:25:02;13.66;66.08
64034;SHT31;50280;49.864;8.638;2023-01-01T19:28:27;13.59;66.62
64034;SHT31;50280;49.864;8.638;2023-01-01T19:31:04;13.58;67.16
64034;SHT31;50280;49.864;8.638;2023-01-01T19:33:38;13.54;67.58
64034;SHT31;50280;49.864;8.638;2023-01-01T19:36:11;13.50;67.51
64034;SHT31;50280;49.864;8.638;2023-01-01T19:38:44;13.41;67.55
64034;SHT31;50280;49.864;8.638;2023-01-01T19:41:16;13.38;67.14
64034;SHT31;50280;49.864;8.638;2023-01-01T19:43:49;13.33;67.19
64034;SHT31;50280;49.864;8.638;2023-01-01T19:46:21;13.28;67.55
64034;SHT31;50280;49.864;8.638;2023-01-01T19:48:56;13.24;67.50
64034;SHT31;50280;49.864;8.638;2023-01-01T19:51:29;13.19;67.61
64034;SHT31;50280;49.864;8.638;2023-01-01T19:54:01;13.17;67.55
64034;SHT31;50280;49.864;8.638;2023-01-01T19:56:34;13.16;68.06
64034;SHT31;50280;49.864;8.638;2023-01-01T19:59:07;13.11;67.55
64034;SHT31;50280;49.864;8.638;2023-01-01T20:01:39;13.09;68.25
64034;SHT31;50280;49.864;8.638;2023-01-01T20:04:13;13.09;68.26
64034;SHT31;50280;49.864;8.638;2023-01-01T20:06:46;13.06;68.21
64034;SHT31;50280;49.864;8.638;2023-01-01T20:09:18;13.06;67.98
64034;SHT31;50280;49.864;8.638;2023-01-01T20:11:50;13.06;68.05
64034;SHT31;50280;49.864;8.638;2023-01-01T20:14:23;13.04;67.87
64034;SHT31;50280;49.864;8.638;2023-01-01T20:16:56;13.06;67.81
64034;SHT31;50280;49.864;8.638;2023-01-01T20:19:29;13.09;67.61
64034;SHT31;50280;49.864;8.638;2023-01-01T20:22:02;13.06;67.33
64034;SHT31;50280;49.864;8.638;2023-01-01T20:24:35;13.06;67.27
64034;SHT31;50280;49.864;8.638;2023-01-01T20:27:07;13.09;67.16
64034;SHT31;50280;49.864;8.638;2023-01-01T20:29:40;13.07;67.31
64034;SHT31;50280;49.864;8.638;2023-01-01T20:32:13;13.07;67.05
64034;SHT31;50280;49.864;8.638;2023-01-01T20:34:47;13.04;67.17
64034;SHT31;50280;49.864;8.638;2023-01-01T20:37:20;13.04;67.15
64034;SHT31;50280;49.864;8.638;2023-01-01T20:39:52;13.03;67.26
64034;SHT31;50280;49.864;8.638;2023-01-01T20:42:25;13.02;67.17
64034;SHT31;50280;49.864;8.638;2023-01-01T20:44:58;13.00;67.61
64034;SHT31;50280;49.864;8.638;2023-01-01T20:47:30;12.99;67.67
64034;SHT31;50280;49.864;8.638;2023-01-01T20:50:05;12.96;67.18
64034;SHT31;50280;49.864;8.638;2023-01-01T20:52:38;12.97;67.37
64034;SHT31;50280;49.864;8.638;2023-01-01T20:55:10;12.97;67.60
64034;SHT31;50280;49.864;8.638;2023-01-01T20:57:43;12.97;67.49
64034;SHT31;50280;49.864;8.638;2023-01-01T21:00:16;12.96;67.32
64034;SHT31;50280;49.864;8.638;2023-01-01T21:02:48;13.00;67.31
64034;SHT31;50280;49.864;8.638;2023-01-01T21:05:22;12.99;67.28
64034;SHT31;50280;49.864;8.638;2023-01-01T21:07:55;13.02;67.34
64034;SHT31;50280;49.864;8.638;2023-01-01T21:10:27;13.02;67.18
64034;SHT31;50280;49.864;8.638;2023-01-01T21:13:00;13.06;67.22
64034;SHT31;50280;49.864;8.638;2023-01-01T21:15:32;13.09;67.10
64034;SHT31;50280;49.864;8.638;2023-01-01T21:18:05;13.14;66.76
64034;SHT31;50280;49.864;8.638;2023-01-01T21:20:44;13.20;66.41
64034;SHT31;50280;49.864;8.638;2023-01-01T21:23:24;13.30;65.97
64034;SHT31;50280;49.864;8.638;2023-01-01T21:25:58;13.43;65.62
64034;SHT31;50280;49.864;8.638;2023-01-01T21:28:32;13.57;65.03
64034;SHT31;50280;49.864;8.638;2023-01-01T21:31:08;13.73;64.29
64034;SHT31;50280;49.864;8.638;2023-01-01T21:33:45;13.85;63.73
64034;SHT31;50280;49.864;8.638;2023-01-01T21:36:21;13.95;63.30
64034;SHT31;50280;49.864;8.638;2023-01-01T21:39:06;14.05;62.66
64034;SHT31;50280;49.864;8.638;2023-01-01T21:41:42;14.20;62.16
64034;SHT31;50280;49.864;8.638;2023-01-01T21:44:15;14.26;61.88
64034;SHT31;50280;49.864;8.638;2023-01-01T21:46:47;14.35;61.48
64034;SHT31;50280;49.864;8.638;2023-01-01T21:49:22;14.40;61.19
64034;SHT31;50280;49.864;8.638;2023-01-01T21:52:14;14.46;60.86
64034;SHT31;50280;49.864;8.638;2023-01-01T21:54:54;14.52;60.56
64034;SHT31;50280;49.864;8.638;2023-01-01T21:57:27;14.61;60.35
64034;SHT31;50280;49.864;8.638;2023-01-01T22:00:18;14.67;59.99
64034;SHT31;50280;49.864;8.638;2023-01-01T22:02:52;14.72;59.73
64034;SHT31;50280;49.864;8.638;2023-01-01T22:05:29;14.78;59.17
64034;SHT31;50280;49.864;8.638;2023-01-01T22:08:22;14.88;58.87
64034;SHT31;50280;49.864;8.638;2023-01-01T22:10:56;14.95;58.53
64034;SHT31;50280;49.864;8.638;2023-01-01T22:13:29;15.04;58.27
64034;SHT31;50280;49.864;8.638;2023-01-01T22:16:02;15.10;58.13
64034;SHT31;50280;49.864;8.638;2023-01-01T22:18:37;15.17;57.86
64034;SHT31;50280;49.864;8.638;2023-01-01T22:21:15;15.22;57.67
64034;SHT31;50280;49.864;8.638;2023-01-01T22:23:51;15.27;57.51
64034;SHT31;50280;49.864;8.638;2023-01-01T22:26:30;15.31;57.35
64034;SHT31;50280;49.864;8.638;2023-01-01T22:29:15;15.40;57.03
64034;SHT31;50280;49.864;8.638;2023-01-01T22:31:59;15.41;57.08
64034;SHT31;50280;49.864;8.638;2023-01-01T22:34:43;15.43;56.90
64034;SHT31;50280;49.864;8.638;2023-01-01T22:37:18;15.50;56.59
64034;SHT31;50280;49.864;8.638;2023-01-01T22:40:01;15.59;56.34
64034;SHT31;50280;49.864;8.638;2023-01-01T22:42:36;15.63;56.24
64034;SHT31;50280;49.864;8.638;2023-01-01T22:45:13;15.65;56.09
64034;SHT31;50280;49.864;8.638;2023-01-01T22:47:47;15.69;56.15
64034;SHT31;50280;49.864;8.638;2023-01-01T22:50:21;15.71;55.93
64034;SHT31;50280;49.864;8.638;2023-01-01T22:52:58;15.77;55.97
64034;SHT31;50280;49.864;8.638;2023-01-01T22:55:31;15.82;56.26
64034;SHT31;50280;49.864;8.638;2023-01-01T22:58:04;15.88;56.68
64034;SHT31;50280;49.864;8.638;2023-01-01T23:00:36;15.85;55.49
64034;SHT31;50280;49.864;8.638;2023-01-01T23:03:09;15.81;55.45
64034;SHT31;50280;49.864;8.638;2023-01-01T23:05:41;15.79;55.70
64034;SHT31;50280;49.864;8.638;2023-01-01T23:08:14;15.78;55.72
64034;SHT31;50280;49.864;8.638;2023-01-01T23:10:48;15.72;55.65
64034;SHT31;50280;49.864;8.638;2023-01-01T23:13:21;15.73;55.80
64034;SHT31;50280;49.864;8.638;2023-01-01T23:15:54;15.71;55.88
64034;SHT31;50280;49.864;8.638;2023-01-01T23:18:29;15.71;55.73
64034;SHT31;50280;49.864;8.638;2023-01-01T23:21:07;15.69;55.99
64034;SHT31;50280;49.864;8.638;2023-01-01T23:23:42;15.66;55.92
64034;SHT31;50280;49.864;8.638;2023-01-01T23:26:17;15.62;55.97
64034;SHT31;50280;49.864;8.638;2023-01-01T23:28:50;15.62;55.91
64034;SHT31;50280;49.864;8.638;2023-01-01T23:31:26;15.63;56.04
64034;SHT31;50280;49.864;8.638;2023-01-01T23:33:59;15.59;56.13
64034;SHT31;50280;49.864;8.638;2023-01-01T23:36:33;15.52;56.28
64034;SHT31;50280;49.864;8.638;2023-01-01T23:39:06;15.50;56.36
64034;SHT31;50280;49.864;8.638;2023-01-01T23:41:40;15.48;56.42
64034;SHT31;50280;49.864;8.638;2023-01-01T23:44:12;15.45;56.50
64034;SHT31;50280;49.864;8.638;2023-01-01T23:46:45;15.44;56.66
64034;SHT31;50280;49.864;8.638;2023-01-01T23:49:18;15.40;56.80